createdAt,value
2023-05-16T08:37:52.258Z,3.80
2023-05-16T08:38:13.877Z,3.70
2023-05-16T08:38:34.493Z,3.60
2023-05-16T08:38:55.112Z,3.70
2023-05-16T08:39:15.829Z,3.90
2023-05-16T08:39:36.434Z,3.80
2023-05-16T08:39:57.056Z,4.10
2023-05-16T08:40:18.830Z,3.80
2023-05-16T08:40:38.450Z,3.80
2023-05-16T08:40:59.101Z,3.90
2023-05-16T08:41:19.725Z,4.30
2023-05-16T08:41:40.573Z,3.90
2023-05-16T08:42:01.422Z,3.90
2023-05-16T08:42:22.086Z,3.90
2023-05-16T08:42:43.481Z,3.70
2023-05-16T08:43:03.378Z,3.60
2023-05-16T08:43:24.026Z,3.80
2023-05-16T08:43:44.626Z,3.90
2023-05-16T08:44:06.225Z,3.80
2023-05-16T08:44:25.853Z,4.00
2023-05-16T08:44:46.483Z,4.00
2023-05-16T08:45:07.186Z,3.80
2023-05-16T08:45:28.018Z,3.80
2023-05-16T08:45:48.713Z,3.80
2023-05-16T08:46:09.352Z,3.80
2023-05-16T08:46:30.018Z,3.60
2023-05-16T08:46:50.837Z,3.60
2023-05-16T08:47:11.568Z,3.70
2023-05-16T08:47:32.389Z,3.70
2023-05-16T08:47:53.691Z,3.70
2023-05-16T08:48:13.830Z,3.60
2023-05-16T08:48:34.406Z,3.80
2023-05-16T08:48:55.049Z,3.90
2023-05-16T08:49:15.678Z,3.80
2023-05-16T08:49:36.284Z,3.90
2023-05-16T08:49:56.958Z,3.90
2023-05-16T08:50:17.608Z,3.70
2023-05-16T08:50:38.240Z,3.80
2023-05-16T08:50:59.056Z,3.70
2023-05-16T08:51:19.703Z,3.70
2023-05-16T08:51:40.343Z,3.80
2023-05-16T08:52:00.950Z,3.70
2023-05-16T08:52:21.546Z,3.70
2023-05-16T08:52:42.736Z,3.70
2023-05-16T08:53:02.831Z,3.60
2023-05-16T08:53:23.768Z,3.80
2023-05-16T08:53:44.083Z,3.80
2023-05-16T08:54:05.684Z,3.90
2023-05-16T08:54:27.362Z,3.70
2023-05-16T08:54:50.400Z,3.90
2023-05-16T08:55:10.937Z,3.80
2023-05-16T08:55:27.382Z,3.80
2023-05-16T08:55:47.660Z,3.60
2023-05-16T08:56:08.273Z,3.70
2023-05-16T08:56:28.870Z,3.70
2023-05-16T08:56:49.479Z,4.00
2023-05-16T08:57:10.105Z,3.80
2023-05-16T08:57:30.690Z,3.60
2023-05-16T08:57:51.277Z,3.70
2023-05-16T08:58:11.883Z,3.60
2023-05-16T08:58:32.531Z,3.60
2023-05-16T08:58:53.139Z,3.70
2023-05-16T08:59:13.840Z,3.70
2023-05-16T08:59:34.526Z,3.70
2023-05-16T08:59:55.807Z,3.80
2023-05-16T09:00:15.982Z,3.70
2023-05-16T09:00:36.615Z,3.80
2023-05-16T09:00:57.277Z,3.60
2023-05-16T09:01:17.994Z,3.80
2023-05-16T09:01:38.665Z,3.80
2023-05-16T09:01:59.284Z,3.90
2023-05-16T09:02:19.975Z,3.90
2023-05-16T09:02:40.792Z,3.70
2023-05-16T09:03:01.484Z,3.80
2023-05-16T09:03:22.173Z,3.90
2023-05-16T09:03:43.005Z,3.80
2023-05-16T09:04:03.710Z,3.60
2023-05-16T09:04:24.446Z,3.80
2023-05-16T09:04:45.078Z,3.70
2023-05-16T09:05:05.681Z,3.70
2023-05-16T09:05:26.467Z,3.80
2023-05-16T09:05:47.283Z,3.60
2023-05-16T09:06:08.458Z,3.50
2023-05-16T09:06:28.633Z,3.80
2023-05-16T09:06:49.225Z,3.80
2023-05-16T09:07:09.832Z,3.70
2023-05-16T09:07:30.452Z,3.60
2023-05-16T09:07:51.055Z,3.70
2023-05-16T09:08:11.659Z,3.60
2023-05-16T09:08:32.312Z,3.60
2023-05-16T09:08:52.924Z,3.70
2023-05-16T09:09:13.673Z,3.60
2023-05-16T09:09:34.324Z,3.40
2023-05-16T09:09:55.520Z,3.70
2023-05-16T09:10:15.676Z,3.70
2023-05-16T09:10:36.298Z,3.70
2023-05-16T09:10:56.986Z,3.30
2023-05-16T09:11:17.763Z,3.60
2023-05-16T09:11:39.049Z,3.80
2023-05-16T09:11:59.177Z,3.80
2023-05-16T09:12:19.835Z,3.70
2023-05-16T09:12:40.626Z,3.60
2023-05-16T09:13:01.244Z,3.60
2023-05-16T09:13:22.623Z,3.60
2023-05-16T09:13:42.704Z,3.60
2023-05-16T09:14:03.327Z,3.60
2023-05-16T09:14:23.937Z,3.70
2023-05-16T09:14:44.521Z,3.50
2023-05-16T09:15:05.108Z,3.60
2023-05-16T09:15:25.849Z,3.60
2023-05-16T09:15:46.520Z,3.70
2023-05-16T09:16:07.161Z,3.70
2023-05-16T09:16:27.781Z,3.70
2023-05-16T09:16:48.440Z,3.60
2023-05-16T09:17:11.633Z,3.70
2023-05-16T09:17:39.081Z,3.70
2023-05-16T09:17:50.660Z,3.40
2023-05-16T09:18:11.298Z,3.70
2023-05-16T09:18:31.986Z,3.80
2023-05-16T09:18:52.729Z,3.60
2023-05-16T09:19:13.476Z,3.30
2023-05-16T09:19:34.142Z,3.60
2023-05-16T09:19:54.718Z,3.70
2023-05-16T09:20:15.555Z,3.50
2023-05-16T09:20:36.148Z,3.50
2023-05-16T09:20:56.804Z,3.50
2023-05-16T09:21:17.453Z,3.60
2023-05-16T09:21:38.063Z,3.60
2023-05-16T09:21:58.687Z,3.60
2023-05-16T09:22:19.292Z,3.40
2023-05-16T09:22:39.916Z,3.40
2023-05-16T09:23:00.538Z,3.50
2023-05-16T09:23:21.151Z,3.60
2023-05-16T09:23:41.780Z,3.60
2023-05-16T09:24:02.372Z,3.60
2023-05-16T09:24:23.008Z,3.50
2023-05-16T09:24:43.617Z,3.90
2023-05-16T09:25:05.718Z,3.60
2023-05-16T09:25:45.703Z,3.50
2023-05-16T09:26:06.370Z,3.60
2023-05-16T09:26:27.032Z,3.70
2023-05-16T09:26:47.663Z,3.60
2023-05-16T09:27:08.274Z,3.70
2023-05-16T09:27:28.917Z,3.60
2023-05-16T09:27:49.544Z,3.70
2023-05-16T09:28:10.131Z,3.80
2023-05-16T09:28:30.851Z,3.80
2023-05-16T09:28:51.524Z,3.50
2023-05-16T09:29:13.249Z,3.50
2023-05-16T09:29:33.472Z,3.50
2023-05-16T09:29:53.579Z,3.10
2023-05-16T09:30:14.257Z,3.40
2023-05-16T09:30:35.177Z,3.50
2023-05-16T09:30:55.441Z,3.60
2023-05-16T09:31:16.040Z,3.50
2023-05-16T09:31:36.780Z,3.60
2023-05-16T09:31:57.454Z,3.90
2023-05-16T09:32:18.067Z,3.50
2023-05-16T09:32:38.659Z,3.60
2023-05-16T09:32:59.637Z,3.60
2023-05-16T09:33:19.946Z,3.50
2023-05-16T09:33:40.636Z,3.50
2023-05-16T09:34:01.192Z,3.40
2023-05-16T09:34:21.769Z,3.50
2023-05-16T09:34:42.377Z,3.60
2023-05-16T09:35:02.993Z,3.60
2023-05-16T09:35:34.964Z,3.50
2023-05-16T09:35:48.080Z,3.30
2023-05-16T09:36:04.813Z,3.40
2023-05-16T09:36:25.429Z,3.50
2023-05-16T09:36:46.062Z,3.70
2023-05-16T09:37:06.630Z,3.60
2023-05-16T09:37:27.245Z,3.40
2023-05-16T09:37:47.844Z,3.60
2023-05-16T09:38:08.476Z,3.70
2023-05-16T09:38:29.092Z,3.50
2023-05-16T09:38:49.763Z,3.40
2023-05-16T09:39:11.069Z,3.60
2023-05-16T09:39:31.336Z,3.50
2023-05-16T09:39:51.914Z,3.60
2023-05-16T09:40:12.527Z,3.50
2023-05-16T09:40:33.181Z,3.70
2023-05-16T09:40:53.769Z,3.60
2023-05-16T09:41:14.383Z,3.80
2023-05-16T09:41:35.171Z,3.70
2023-05-16T09:41:55.848Z,3.60
2023-05-16T09:42:16.552Z,3.60
2023-05-16T09:42:37.123Z,3.50
2023-05-16T09:42:57.742Z,3.50
2023-05-16T09:43:18.644Z,3.50
2023-05-16T09:43:40.312Z,3.60
2023-05-16T09:43:59.366Z,3.50
2023-05-16T09:44:19.985Z,3.50
2023-05-16T09:44:40.581Z,3.40
2023-05-16T09:45:01.790Z,3.40
2023-05-16T09:45:21.884Z,3.50
2023-05-16T09:45:42.476Z,3.60
2023-05-16T09:46:03.134Z,3.50
2023-05-16T09:46:23.818Z,3.50
2023-05-16T09:46:44.494Z,3.20
2023-05-16T09:47:05.118Z,3.40
2023-05-16T09:47:25.778Z,3.40
2023-05-16T09:47:46.405Z,3.30
2023-05-16T09:48:07.176Z,3.50
2023-05-16T09:48:27.872Z,3.50
2023-05-16T09:48:48.485Z,3.40
2023-05-16T09:49:09.236Z,3.40
2023-05-16T09:49:29.933Z,3.20
2023-05-16T09:49:50.505Z,3.50
2023-05-16T09:50:11.119Z,3.50
2023-05-16T09:50:31.706Z,3.50
2023-05-16T09:50:52.545Z,3.30
2023-05-16T09:51:13.585Z,3.50
2023-05-16T09:51:33.716Z,3.50
2023-05-16T09:51:54.338Z,3.40
2023-05-16T09:52:15.615Z,3.50
2023-05-16T09:52:35.737Z,3.50
2023-05-16T09:52:56.390Z,3.30
2023-05-16T09:53:16.988Z,3.50
2023-05-16T09:53:37.602Z,3.60
2023-05-16T09:53:58.215Z,3.80
2023-05-16T09:54:18.809Z,3.60
2023-05-16T09:54:39.536Z,3.40
2023-05-16T09:55:00.096Z,3.40
2023-05-16T09:55:20.698Z,3.60
2023-05-16T09:55:41.312Z,3.60
2023-05-16T09:56:01.924Z,3.40
2023-05-16T09:56:22.528Z,3.40
2023-05-16T09:56:43.137Z,3.40
2023-05-16T09:57:03.749Z,3.50
2023-05-16T09:57:24.410Z,3.50
2023-05-16T09:57:44.999Z,3.40
2023-05-16T09:58:05.603Z,3.60
2023-05-16T09:58:26.224Z,3.40
2023-05-16T09:58:46.822Z,3.40
2023-05-16T09:59:07.447Z,3.40
2023-05-16T09:59:28.099Z,3.30
2023-05-16T09:59:48.734Z,3.30
2023-05-16T10:00:09.308Z,3.50
2023-05-16T10:00:30.052Z,3.40
2023-05-16T10:00:50.655Z,3.20
2023-05-16T10:01:11.298Z,3.30
2023-05-16T10:01:32.005Z,3.50
2023-05-16T10:01:52.622Z,3.70
2023-05-16T10:02:13.295Z,3.60
2023-05-16T10:02:33.957Z,3.60
2023-05-16T10:02:54.654Z,3.20
2023-05-16T10:03:15.373Z,3.20
2023-05-16T10:03:36.034Z,3.20
2023-05-16T10:03:56.842Z,3.30
2023-05-16T10:04:17.537Z,3.40
2023-05-16T10:04:38.204Z,3.30
2023-05-16T10:04:58.855Z,3.30
2023-05-16T10:05:19.487Z,3.20
2023-05-16T10:05:40.102Z,3.50
2023-05-16T10:06:00.698Z,3.30
2023-05-16T10:06:21.351Z,3.20
2023-05-16T10:06:41.970Z,3.40
2023-05-16T10:07:02.564Z,3.40
2023-05-16T10:07:23.223Z,3.50
2023-05-16T10:07:43.832Z,3.40
2023-05-16T10:08:04.417Z,3.30
2023-05-16T10:08:25.024Z,3.20
2023-05-16T10:08:45.712Z,3.30
2023-05-16T10:09:07.539Z,3.30
2023-05-16T10:09:27.194Z,3.40
2023-05-16T10:09:47.820Z,3.50
2023-05-16T10:10:08.455Z,3.40
2023-05-16T10:10:29.069Z,3.40
2023-05-16T10:10:49.676Z,3.40
2023-05-16T10:11:10.367Z,3.30
2023-05-16T10:11:30.992Z,3.30
2023-05-16T10:11:51.719Z,3.30
2023-05-16T10:12:12.341Z,3.20
2023-05-16T10:12:32.958Z,3.40
2023-05-16T10:12:53.581Z,3.30
2023-05-16T10:13:15.351Z,3.40
2023-05-16T10:13:35.348Z,3.40
2023-05-16T10:13:55.926Z,3.40
2023-05-16T10:14:16.544Z,3.50
2023-05-16T10:14:37.154Z,3.40
2023-05-16T10:14:57.760Z,3.50
2023-05-16T10:15:18.409Z,3.40
